Madrid, España

1:15 AM CET en Enero 29, 2015 (GMT +0100)
Madrid - Las Mercedes | Change Station
CLOSE
Current Station
Estación meteorológica personal
Location: Madrid, COMUNIDAD DE MADRID
Altura: 2037 ft
Estaciones meteorológicas cercanas
Aviso en curso: Wind

Alt 2037 ft 40.44 °N, 3.59 °W | Updated 14 minutes ago

Clear
Despejado
40.8 ° F
Sensación térmica 41 ° F
N
1.6
Viento Variable Viento desde ESE
Gusts 3.8 mph

Hoy
Alta -- | Baja -- ° F
--% Posibilidad de precipitaciones
Ayer
Alta -- | Baja -- ° F
Precip. -- pul
8:26 AM 6:28 PM
Gibosa creciente, 69% visible
Presión 30.15 pul
Visibilidad -9999.0 Millas
Nubes
Vientos helados 41 ° F
Punto de rocío 35 ° F
Humedad 80%
Precipitaciones 0.00 pul
Espesor de la nieve No disponible.
UV No disponible.
Polen No disponible.
Calidad del aire No disponible.
Flu Activity No disponible.
METAR LEMD 290000Z 02006KT CAVOK 02/01 Q1021 NOSIG

More Conditions Fewer Conditions

Presión 30.15 pul
Visibilidad -9999.0 Millas
Nubes
Vientos helados 41 ° F
Punto de rocío 35 ° F
Humedad 80%
Precipitaciones 0.00 pul
Espesor de la nieve No disponible.
UV No disponible.
Polen No disponible.
Calidad del aire No disponible.
Flu Activity No disponible.
METAR LEMD 290000Z 02006KT CAVOK 02/01 Q1021 NOSIG

More Conditions Fewer Conditions

10-Day Weather Forecast

Almanac

Astronomía

Jan. 29, 2015 Salida Puesta
Hora real
Crepúsculo civil
Crepúsculo náutico
Crepúsculo astronómico
Luna
Horas de luz
Horas de luz
Tomorrow will be .
, % of the Moon is Illuminated

Extremos de hoy

Máximos del país Bajas del país

Community

WunderPhotos

Upload Photos

1,791,302 ¡fotos cargadas!

WunderBlogs® & News

Nearby

Calidad del aire

  Calidad del aire Índice AQ Contaminante
Not available.

Grosos de nieve

Estación Profundido Altura

Actividad de terremotos

Ciudad Distance Mag. Tiempo y dato
Magnitud mínima muestra es 2,5.

Temperaturas de aguas costeras

Lugar Temperatura

Estaciones meteorológicas cercanas